Time;durP1;ratioP1;P1;durP2;ratioP2;P2;SDS_P1;SDS_P2;PMS_P1;PMS_P2;Temp;Humidity;BMP_temperature;BMP_pressure;BME280_temperature;BME280_humidity;BME280_pressure;Samples;Min_cycle;Max_cycle;Signal;HPM_P1;HPM_P2
2022/09/02 00:01:56;;;;;;;6.15;4.78;;;17.70;64.20;;;20.48;44.87;97675.94;5005140;28;20076;-40
2022/09/02 00:04:25;;;;;;;4.90;3.80;;;17.70;64.20;;;20.45;44.93;97671.81;5002853;28;20034;-40
2022/09/02 00:06:54;;;;;;;6.95;4.20;;;17.70;64.30;;;20.42;45.19;97669.53;5005280;28;20046;-40
2022/09/02 00:09:24;;;;;;;4.60;4.20;;;17.70;64.30;;;20.40;45.01;97679.75;5004500;28;20240;-39
2022/09/02 00:11:54;;;;;;;4.70;4.30;;;17.70;64.50;;;20.37;45.34;97668.56;5005382;28;20056;-40
2022/09/02 00:14:31;;;;;;;5.15;4.40;;;17.60;64.60;;;20.40;45.22;97670.81;5004750;28;20061;-40
2022/09/02 00:16:59;;;;;;;5.70;4.53;;;17.60;64.80;;;20.37;45.02;97666.66;5005275;28;20050;-40
2022/09/02 00:19:29;;;;;;;5.30;4.20;;;17.60;64.90;;;20.32;45.26;97663.81;5004806;28;20054;-40
2022/09/02 00:21:59;;;;;;;5.70;4.43;;;17.50;65.40;;;20.30;45.31;97652.41;5036045;28;20053;-40
2022/09/02 00:24:27;;;;;;;5.45;4.95;;;17.40;65.60;;;20.24;45.30;97651.44;5004393;28;20042;-40
2022/09/02 00:26:55;;;;;;;5.47;4.40;;;17.40;65.70;;;20.22;45.46;97655.38;5004791;28;20049;-40
2022/09/02 00:29:26;;;;;;;5.22;4.72;;;17.30;66.10;;;20.15;45.73;97647.34;5004368;28;20298;-40
2022/09/02 00:31:54;;;;;;;5.10;4.60;;;17.30;66.60;;;20.12;45.62;97646.97;5004201;28;20054;-40
2022/09/02 00:34:23;;;;;;;5.78;5.05;;;17.20;66.70;;;20.09;45.81;97642.03;5004884;28;20050;-40
2022/09/02 00:36:51;;;;;;;5.32;4.78;;;17.20;66.60;;;20.04;45.72;97638.09;5004689;28;20355;-39
2022/09/02 00:39:19;;;;;;;4.40;4.00;;;17.10;66.60;;;20.00;45.96;97639.56;5004065;28;20057;-40
2022/09/02 00:41:47;;;;;;;5.72;4.85;;;17.20;66.70;;;19.98;45.94;97641.69;5019558;28;20092;-39
2022/09/02 00:44:20;;;;;;;5.07;4.60;;;17.10;66.80;;;19.94;45.81;97635.06;5004346;28;20249;-40
2022/09/02 00:46:49;;;;;;;6.03;5.38;;;17.10;67.20;;;19.92;45.82;97642.56;5019865;28;20064;-40
2022/09/02 00:49:28;;;;;;;5.20;4.70;;;17.00;67.20;;;19.89;45.85;97636.78;5002919;28;20050;-40
2022/09/02 00:52:04;;;;;;;5.20;4.70;;;17.00;67.50;;;19.81;46.13;97636.03;5033791;28;20050;-40
2022/09/02 00:54:40;;;;;;;5.57;4.90;;;16.90;67.70;;;19.78;46.12;97633.75;5003782;28;20050;-40
2022/09/02 00:57:16;;;;;;;5.15;4.65;;;16.90;68.20;;;19.74;46.12;97637.13;5034667;28;20057;-39
2022/09/02 00:59:59;;;;;;;5.88;4.53;;;16.80;68.00;;;19.72;46.29;97633.81;5003833;28;20046;-40
2022/09/02 01:02:27;;;;;;;5.13;4.50;;;16.80;68.10;;;19.70;46.38;97641.25;5034545;28;20054;-39
2022/09/02 01:04:57;;;;;;;6.03;4.97;;;16.80;68.30;;;19.66;46.57;97644.41;5004037;28;20042;-39
2022/09/02 01:07:29;;;;;;;6.97;5.38;;;16.80;68.60;;;19.63;46.51;97639.44;5003274;28;20309;-40
2022/09/02 01:10:01;;;;;;;6.30;5.70;;;16.80;68.60;;;19.60;46.46;97645.28;5034356;28;20050;-40
2022/09/02 01:12:31;;;;;;;6.68;6.07;;;16.70;68.70;;;19.57;46.54;97642.19;5019104;28;20257;-40
2022/09/02 01:14:59;;;;;;;6.82;6.13;;;16.70;68.80;;;19.53;46.57;97639.09;5033986;28;20072;-39
2022/09/02 01:17:27;;;;;;;6.82;5.55;;;16.60;68.80;;;19.46;46.90;97636.47;5003497;28;20060;-40
2022/09/02 01:20:10;;;;;;;6.57;5.97;;;16.60;69.10;;;19.45;46.71;97645.59;5018560;28;20060;-40
2022/09/02 01:22:41;;;;;;;6.68;5.47;;;16.60;69.80;;;19.44;46.64;97640.41;5003616;28;20050;-40
2022/09/02 01:25:18;;;;;;;6.95;5.53;;;16.50;69.60;;;19.40;46.71;97633.78;5003942;28;20050;-40
2022/09/02 01:27:47;;;;;;;5.35;4.85;;;16.40;69.60;;;19.34;46.88;97646.28;5003431;28;20050;-40
2022/09/02 01:30:22;;;;;;;5.90;5.30;;;16.40;69.60;;;19.31;46.91;97635.94;5002839;28;20060;-40
2022/09/02 01:32:51;;;;;;;5.00;4.45;;;16.40;69.70;;;19.28;46.90;97642.56;5034516;28;20046;-39
2022/09/02 01:35:20;;;;;;;5.68;4.88;;;16.40;69.80;;;19.24;46.75;97638.66;5002502;28;20061;-40
2022/09/02 01:37:48;;;;;;;5.07;4.30;;;16.40;69.60;;;19.18;47.04;97647.63;5003753;28;20058;-39
2022/09/02 01:40:25;;;;;;;6.00;5.40;;;16.30;69.80;;;19.17;46.97;97645.16;5003246;28;20046;-39
2022/09/02 01:43:01;;;;;;;5.18;4.68;;;16.30;69.90;;;19.10;47.13;97645.19;5002726;28;20054;-39
2022/09/02 01:45:29;;;;;;;5.30;4.80;;;16.20;70.90;;;19.04;47.19;97637.97;5017508;28;20056;-40
2022/09/02 01:47:57;;;;;;;5.53;5.03;;;16.10;70.40;;;19.01;47.26;97643.78;5003623;28;20054;-40
2022/09/02 01:50:26;;;;;;;5.38;4.88;;;16.10;70.50;;;18.98;47.31;97645.03;5003192;28;20056;-39
2022/09/02 01:52:54;;;;;;;5.95;5.35;;;16.10;70.70;;;18.99;47.45;97637.78;5002845;28;20394;-40
2022/09/02 01:55:22;;;;;;;5.68;5.10;;;16.10;70.90;;;18.94;47.50;97635.72;5002869;28;20061;-40
2022/09/02 01:57:50;;;;;;;6.25;5.60;;;16.10;71.30;;;18.93;47.59;97633.25;5017937;28;20061;-39
2022/09/02 02:00:19;;;;;;;6.50;5.90;;;16.00;71.40;;;18.86;47.63;97631.41;5002035;28;20057;-40
2022/09/02 02:02:47;;;;;;;8.23;5.55;;;16.00;71.70;;;18.84;47.45;97629.94;5018167;28;20064;-39
2022/09/02 02:05:18;;;;;;;6.38;5.40;;;15.90;71.70;;;18.80;47.60;97632.25;5002085;28;20053;-41
2022/09/02 02:07:49;;;;;;;7.53;5.40;;;15.90;72.00;;;18.78;47.56;97630.78;5001889;28;20064;-39
2022/09/02 02:10:20;;;;;;;5.82;5.10;;;15.90;71.90;;;18.76;47.51;97628.28;5002290;28;20050;-40
2022/09/02 02:12:50;;;;;;;5.18;4.68;;;15.90;71.80;;;18.72;47.65;97629.75;5003321;28;20366;-39
2022/09/02 02:15:23;;;;;;;5.50;4.55;;;15.90;71.50;;;18.68;47.54;97628.53;5001044;28;20054;-39
2022/09/02 02:17:50;;;;;;;4.47;3.90;;;15.90;71.20;;;18.68;47.54;97628.53;5033970;28;20034;-39
2022/09/02 02:20:20;;;;;;;4.53;3.78;;;15.90;70.80;;;18.72;47.48;97632.47;5002152;28;20064;-39
2022/09/02 02:22:48;;;;;;;5.28;4.28;;;16.00;70.40;;;18.76;47.37;97624.78;5002097;28;20058;-39
2022/09/02 02:25:17;;;;;;;6.10;3.30;;;16.00;69.70;;;18.76;47.16;97625.59;5001656;28;20088;-39
2022/09/02 02:27:50;;;;;;;4.50;4.07;;;16.10;69.20;;;18.80;46.92;97626.84;5017610;28;20255;-39
2022/09/02 02:30:21;;;;;;;14.38;3.85;;;16.10;68.90;;;18.84;46.77;97627.25;5034169;28;20289;-39
2022/09/02 02:32:50;;;;;;;4.03;3.50;;;16.10;68.40;;;18.86;46.83;97622.47;5002224;28;20256;-39
2022/09/02 02:35:20;;;;;;;3.80;3.10;;;16.20;68.20;;;18.89;46.56;97620.19;5001433;28;20060;-39
2022/09/02 02:37:49;;;;;;;4.13;3.15;;;16.20;67.80;;;18.88;46.51;97617.69;5001657;28;20054;-39
2022/09/02 02:40:22;;;;;;;4.40;3.33;;;16.30;68.30;;;18.91;46.50;97624.53;5034753;28;20058;-39
2022/09/02 02:42:54;;;;;;;4.07;3.27;;;16.30;67.30;;;18.92;46.40;97616.25;5001962;28;20060;-39
2022/09/02 02:45:25;;;;;;;5.32;3.30;;;16.20;67.20;;;18.91;46.53;97622.66;5001643;28;20290;-40
2022/09/02 02:47:53;;;;;;;5.13;3.70;;;16.20;67.40;;;18.94;46.31;97618.69;5002732;28;20050;-40
2022/09/02 02:50:24;;;;;;;3.38;3.08;;;16.20;67.30;;;18.94;46.28;97613.31;5002439;28;20042;-39
2022/09/02 02:52:53;;;;;;;4.25;3.53;;;16.20;67.10;;;18.94;46.20;97616.84;5002493;28;20047;-39
2022/09/02 02:55:24;;;;;;;5.93;3.75;;;16.20;67.00;;;18.94;46.29;97616.84;5001086;28;20068;-39
2022/09/02 02:57:53;;;;;;;4.50;3.30;;;16.20;67.80;;;18.91;46.22;97611.88;5017349;28;20229;-39
2022/09/02 03:00:28;;;;;;;3.40;3.10;;;16.20;67.10;;;18.93;46.21;97615.19;5002742;28;20076;-39
2022/09/02 03:03:00;;;;;;;5.32;3.40;;;16.20;67.00;;;18.92;46.13;97610.84;4999118;28;20085;-39
2022/09/02 03:05:30;;;;;;;4.18;3.72;;;16.20;67.00;;;18.93;46.17;97612.47;5000668;28;20057;-39
2022/09/02 03:07:58;;;;;;;4.30;3.72;;;16.20;67.00;;;18.91;46.13;97614.56;5036399;28;20228;-40
2022/09/02 03:10:27;;;;;;;4.38;3.50;;;16.20;67.00;;;18.88;46.44;97612.28;5053608;28;20060;-39
2022/09/02 03:12:55;;;;;;;4.40;4.00;;;16.10;67.40;;;18.85;46.16;97612.75;5038606;28;20049;-39
2022/09/02 03:15:23;;;;;;;4.03;3.58;;;16.00;67.60;;;18.85;46.23;97612.75;5025604;28;20050;-39
2022/09/02 03:17:55;;;;;;;4.75;3.80;;;16.00;67.70;;;18.84;46.11;97609.22;5024185;28;20057;-39
2022/09/02 03:20:24;;;;;;;3.95;3.50;;;16.00;67.70;;;18.79;46.33;97611.69;5024023;28;20060;-39
2022/09/02 03:22:57;;;;;;;4.35;3.95;;;15.90;68.00;;;18.74;46.31;97613.38;5024488;28;20053;-40
2022/09/02 03:25:30;;;;;;;5.25;3.97;;;15.90;68.40;;;18.70;46.52;97618.38;5023781;28;20054;-40
2022/09/02 03:28:10;;;;;;;4.70;3.95;;;15.80;68.60;;;18.66;46.45;97611.75;5025511;28;20247;-39
2022/09/02 03:30:40;;;;;;;5.18;4.40;;;15.70;69.00;;;18.61;46.65;97622.34;5039855;28;20054;-39
2022/09/02 03:33:08;;;;;;;7.72;4.82;;;15.60;69.20;;;18.57;46.68;97621.09;5040772;28;20068;-39
2022/09/02 03:35:42;;;;;;;5.30;4.70;;;15.60;69.30;;;18.55;46.43;97610.53;5040542;28;20061;-40
2022/09/02 03:38:12;;;;;;;5.10;4.60;;;15.60;69.50;;;18.53;46.81;97614.50;5023939;28;20084;-39
2022/09/02 03:40:41;;;;;;;5.43;4.47;;;15.60;69.50;;;18.48;46.83;97613.25;5025228;28;20042;-40
2022/09/02 03:43:10;;;;;;;5.50;4.55;;;15.50;69.80;;;18.41;47.05;97611.63;5040684;28;20386;-39
2022/09/02 03:45:40;;;;;;;5.47;4.55;;;15.50;70.00;;;18.39;46.81;97611.84;5023613;28;20046;-39
2022/09/02 03:48:12;;;;;;;5.72;4.53;;;15.50;70.00;;;18.36;46.95;97612.28;5024160;28;20056;-39
2022/09/02 03:50:45;;;;;;;9.57;4.63;;;15.50;70.20;;;18.33;47.10;97615.38;5039533;28;20056;-40
2022/09/02 03:53:17;;;;;;;6.35;4.20;;;15.40;70.20;;;18.32;47.08;97613.75;5024021;28;20049;-40
2022/09/02 03:55:50;;;;;;;4.90;4.27;;;15.40;70.00;;;18.30;47.03;97605.84;5039584;28;20057;-39
2022/09/02 03:58:22;;;;;;;4.43;3.78;;;15.40;70.00;;;18.27;47.17;97613.53;5056318;28;20251;-39
2022/09/02 04:00:53;;;;;;;9.23;4.40;;;15.30;70.10;;;18.23;47.19;97607.72;5023482;28;20229;-40
2022/09/02 04:03:23;;;;;;;4.60;4.13;;;15.40;70.10;;;18.18;47.36;97610.22;5023847;28;20253;-39
2022/09/02 04:05:51;;;;;;;4.43;3.75;;;15.40;70.10;;;18.15;47.47;97613.34;5023663;28;20046;-39
2022/09/02 04:08:22;;;;;;;5.65;4.18;;;15.30;70.40;;;18.13;47.15;97614.63;5023639;28;20052;-40
2022/09/02 04:10:51;;;;;;;7.28;4.22;;;15.20;70.50;;;18.10;47.49;97610.47;5007697;28;20049;-39
2022/09/02 04:13:19;;;;;;;5.70;5.10;;;15.20;70.70;;;18.06;47.33;97614.59;5023343;28;20162;-39
2022/09/02 04:15:48;;;;;;;5.15;4.60;;;15.20;70.80;;;18.04;47.60;97616.69;5023412;28;20054;-40
2022/09/02 04:18:20;;;;;;;4.78;4.30;;;15.20;71.00;;;18.00;47.55;97610.88;5022978;28;20050;-39
2022/09/02 04:20:50;;;;;;;5.57;4.50;;;15.10;72.10;;;17.97;47.46;97619.41;5022686;28;20382;-39
2022/09/02 04:23:19;;;;;;;4.90;4.43;;;15.10;71.30;;;17.93;47.42;97622.69;5039476;28;20129;-39
2022/09/02 04:25:47;;;;;;;5.78;3.85;;;15.00;71.30;;;17.87;47.61;97617.13;5040137;28;20045;-39
2022/09/02 04:28:17;;;;;;;7.38;6.05;;;15.00;71.80;;;17.86;47.76;97618.16;5023087;28;20147;-39
2022/09/02 04:30:46;;;;;;;6.03;4.50;;;14.90;71.80;;;17.84;47.83;97617.53;5023136;28;20367;-39
2022/09/02 04:33:15;;;;;;;5.60;3.63;;;14.90;71.90;;;17.79;47.63;97609.22;5023177;28;20235;-39
2022/09/02 04:35:48;;;;;;;4.60;4.05;;;14.90;72.10;;;17.76;48.03;97611.50;5038710;28;20060;-39
2022/09/02 04:38:17;;;;;;;3.97;3.58;;;14.80;72.30;;;17.74;47.96;97605.47;5023259;28;20056;-39
2022/09/02 04:40:47;;;;;;;8.93;3.75;;;14.80;72.30;;;17.73;47.97;97599.28;5039761;28;20060;-39
2022/09/02 04:43:17;;;;;;;4.57;3.78;;;14.80;72.30;;;17.73;47.85;97606.53;5024359;28;20263;-39
2022/09/02 04:45:46;;;;;;;4.38;3.90;;;14.80;72.30;;;17.68;47.99;97605.31;5022645;28;20226;-39
2022/09/02 04:48:17;;;;;;;5.18;4.18;;;14.70;72.40;;;17.62;48.18;97611.53;5039251;28;20064;-39
2022/09/02 04:50:48;;;;;;;9.98;4.60;;;14.80;72.40;;;17.62;48.26;97613.34;5039263;28;20244;-40
2022/09/02 04:53:17;;;;;;;6.55;4.20;;;14.80;72.60;;;17.61;48.12;97612.53;5022283;28;20049;-39
2022/09/02 04:55:45;;;;;;;5.53;3.67;;;14.80;72.60;;;17.62;48.38;97611.53;5022262;28;20060;-39
2022/09/02 04:58:15;;;;;;;5.35;3.72;;;14.80;72.60;;;17.62;48.17;97610.66;5038649;28;20050;-39
2022/09/02 05:00:45;;;;;;;5.80;4.22;;;14.80;72.50;;;17.63;48.18;97615.03;5039603;28;20054;-40
2022/09/02 05:03:15;;;;;;;6.85;4.20;;;14.70;72.40;;;17.60;48.26;97610.91;5039146;28;20058;-39
2022/09/02 05:05:47;;;;;;;5.18;3.85;;;14.70;72.70;;;17.59;48.28;97621.88;5022336;28;20235;-39
2022/09/02 05:08:21;;;;;;;4.38;3.92;;;14.70;73.00;;;17.58;48.32;97609.44;5021976;28;20386;-39
2022/09/02 05:10:52;;;;;;;4.13;3.72;;;14.60;73.10;;;17.57;48.51;97611.28;5022650;28;20056;-39
2022/09/02 05:13:22;;;;;;;4.18;3.72;;;14.70;73.30;;;17.56;48.47;97612.31;5055753;28;20060;-39
2022/09/02 05:15:53;;;;;;;5.00;4.32;;;14.70;73.40;;;17.57;48.47;97605.09;5022110;28;20057;-39
2022/09/02 05:18:22;;;;;;;5.68;4.05;;;14.70;73.20;;;17.56;48.46;97606.94;5038300;28;20076;-39
2022/09/02 05:20:50;;;;;;;4.40;3.75;;;14.70;73.30;;;17.56;48.60;97609.63;5021507;28;20272;-39
2022/09/02 05:23:19;;;;;;;4.55;4.15;;;14.70;73.40;;;17.58;48.75;97612.13;5022767;28;20054;-39
2022/09/02 05:25:47;;;;;;;4.28;3.80;;;14.70;73.50;;;17.60;48.62;97612.75;5038676;28;20352;-39
2022/09/02 05:28:17;;;;;;;4.35;3.75;;;14.80;73.50;;;17.62;48.87;97610.66;5021354;28;20064;-39
2022/09/02 05:30:46;;;;;;;6.45;3.92;;;14.80;73.60;;;17.65;48.84;97615.66;5022207;28;20056;-39
2022/09/02 05:33:16;;;;;;;7.38;4.35;;;14.90;73.70;;;17.68;48.73;97617.91;5021360;28;20050;-39
2022/09/02 05:35:48;;;;;;;6.00;4.80;;;14.90;73.70;;;17.68;48.61;97618.75;5021798;28;20360;-40
2022/09/02 05:38:17;;;;;;;5.53;4.07;;;14.90;73.60;;;17.70;48.92;97613.19;5021561;28;20058;-39
2022/09/02 05:40:47;;;;;;;5.13;4.05;;;14.90;73.60;;;17.73;48.69;97620.00;5038274;28;20052;-39
2022/09/02 05:43:15;;;;;;;4.45;3.95;;;14.90;73.70;;;17.75;48.91;97615.22;5021659;28;20050;-39
2022/09/02 05:45:43;;;;;;;5.30;4.05;;;14.90;73.70;;;17.78;48.81;97620.22;5021623;28;20056;-39
2022/09/02 05:51:04;;;;;;;5.22;4.25;;;14.90;73.70;;;17.82;48.73;97616.06;5038171;28;20071;-39
2022/09/02 05:53:34;;;;;;;4.93;4.28;;;15.00;74.00;;;17.84;48.89;97608.63;5054613;28;20056;-40
2022/09/02 05:56:05;;;;;;;7.93;5.15;;;15.00;73.80;;;17.85;48.79;97611.09;5037927;28;20255;-39
2022/09/02 05:58:34;;;;;;;6.50;4.35;;;15.00;74.00;;;17.86;48.93;97620.84;5037887;28;20259;-39
2022/09/02 06:01:11;;;;;;;4.82;4.15;;;15.00;74.00;;;17.89;49.13;97614.22;5022688;28;20197;-39
2022/09/02 06:03:39;;;;;;;6.60;4.57;;;15.00;74.10;;;17.90;48.95;97618.56;5021537;28;20143;-39
2022/09/02 06:06:09;;;;;;;7.70;4.13;;;15.10;74.10;;;17.92;48.90;97611.09;5019498;28;20247;-39
2022/09/02 06:08:40;;;;;;;4.97;4.30;;;15.20;74.10;;;17.97;49.12;97615.84;5020512;28;20046;-39
2022/09/02 06:11:10;;;;;;;5.47;4.30;;;15.20;74.00;;;18.00;48.90;97620.84;5022528;28;20050;-39
2022/09/02 06:13:41;;;;;;;5.80;4.03;;;15.20;73.90;;;18.03;48.92;97615.00;5020977;28;20050;-39
2022/09/02 06:16:17;;;;;;;7.28;3.95;;;15.30;73.80;;;18.08;48.81;97615.22;5021470;28;20065;-39
2022/09/02 06:18:48;;;;;;;8.25;4.60;;;15.30;73.80;;;18.12;49.08;97619.16;5021180;28;20371;-40
2022/09/02 06:21:19;;;;;;;5.40;3.88;;;15.30;73.70;;;18.15;49.02;97616.06;5036987;28;20050;-39
2022/09/02 06:23:51;;;;;;;5.13;4.15;;;15.40;74.40;;;18.19;48.75;97614.59;5037632;28;20247;-39
2022/09/02 06:26:20;;;;;;;4.90;4.15;;;15.40;73.50;;;18.23;48.78;97615.00;5021282;28;20344;-39
2022/09/02 06:28:49;;;;;;;4.85;4.32;;;15.50;73.20;;;18.25;49.04;97613.75;5053618;28;20057;-40
2022/09/02 06:31:21;;;;;;;4.55;3.83;;;15.60;73.20;;;18.29;49.06;97611.47;5022153;28;20053;-39
2022/09/02 06:33:55;;;;;;;5.25;4.05;;;15.50;73.40;;;18.38;48.97;97606.66;5020683;28;20057;-39
2022/09/02 06:36:28;;;;;;;4.20;3.80;;;15.60;73.40;;;18.39;48.97;97611.84;5021305;28;20080;-40
2022/09/02 06:39:00;;;;;;;5.95;3.85;;;15.70;73.10;;;18.41;48.59;97611.63;5036259;28;20046;-39
2022/09/02 06:41:33;;;;;;;4.10;3.60;;;15.70;72.90;;;18.46;48.58;97615.34;5037768;28;20056;-39
2022/09/02 06:44:08;;;;;;;4.30;3.90;;;15.80;72.50;;;18.54;48.54;97608.06;5020361;28;20046;-39
2022/09/02 06:46:43;;;;;;;5.15;3.55;;;15.80;72.10;;;18.61;48.44;97611.53;5054576;28;20048;-39
2022/09/02 06:49:15;;;;;;;4.40;3.85;;;15.90;71.70;;;18.65;48.44;97613.63;5024756;28;20046;-39
2022/09/02 06:51:48;;;;;;;5.28;3.90;;;16.00;71.70;;;18.68;48.39;97621.28;5041750;28;20356;-40
2022/09/02 06:54:20;;;;;;;5.13;3.88;;;16.00;71.70;;;18.74;48.30;97610.69;5041163;28;20058;-39
2022/09/02 06:56:53;;;;;;;5.05;3.30;;;16.00;71.70;;;18.80;48.40;97612.53;5025131;28;20076;-39
2022/09/02 06:59:24;;;;;;;6.15;3.63;;;16.10;71.70;;;18.86;48.22;97617.94;5040976;28;20050;-39
2022/09/02 07:01:55;;;;;;;5.22;3.28;;;16.20;71.50;;;18.89;48.30;97614.78;5025060;28;20054;-40
2022/09/02 07:07:14;;;;;;;4.97;3.40;;;16.20;71.50;;;19.01;48.32;97614.09;5025137;28;20052;-40
2022/09/02 07:09:51;;;;;;;8.45;4.00;;;16.30;71.80;;;19.05;48.24;97609.94;5040944;28;20049;-39
2022/09/02 07:12:19;;;;;;;9.25;4.65;;;16.40;71.50;;;19.08;48.22;97610.31;5041019;28;20055;-40
2022/09/02 07:15:03;;;;;;;19.60;6.28;;;16.50;71.00;;;19.15;48.17;97606.75;5023996;28;20046;-40
2022/09/02 07:17:36;;;;;;;5.28;3.60;;;16.50;70.70;;;19.21;48.01;97597.78;5024503;28;20057;-40
2022/09/02 07:20:09;;;;;;;4.75;3.80;;;16.60;70.30;;;19.26;47.70;97598.78;5040044;28;20050;-40
2022/09/02 07:22:57;;;;;;;4.20;3.20;;;16.70;69.50;;;19.32;47.55;97605.19;5025633;28;20061;-40
2022/09/02 07:25:27;;;;;;;4.55;3.45;;;16.70;69.30;;;19.34;47.50;97595.00;5023600;28;20370;-40
2022/09/02 07:27:55;;;;;;;4.30;3.20;;;16.80;68.90;;;19.39;47.51;97600.59;5025169;28;20052;-40
2022/09/02 07:30:24;;;;;;;5.28;2.97;;;16.90;68.80;;;19.47;47.32;97591.38;5040601;28;20050;-40
2022/09/02 07:32:58;;;;;;;6.20;4.32;;;16.90;69.30;;;19.53;47.06;97587.81;5024847;28;20046;-40
2022/09/02 07:35:28;;;;;;;5.07;3.42;;;17.00;68.10;;;19.57;47.00;97591.72;5040647;28;20054;-39
2022/09/02 07:37:57;;;;;;;3.42;3.13;;;17.00;67.80;;;19.60;46.91;97591.28;5024897;28;20052;-40
2022/09/02 07:40:25;;;;;;;6.53;3.17;;;17.10;67.50;;;19.68;46.76;97593.72;5024514;28;20053;-40
2022/09/02 07:42:53;;;;;;;4.78;3.13;;;17.10;67.30;;;19.71;46.87;97588.91;5040156;28;20057;-39
2022/09/02 07:45:22;;;;;;;3.50;2.72;;;17.20;67.20;;;19.77;46.61;97594.28;5023944;28;20053;-39
2022/09/02 07:47:50;;;;;;;3.70;3.10;;;17.20;67.00;;;19.83;46.60;97592.56;5023466;28;20050;-40
2022/09/02 07:50:20;;;;;;;5.75;4.28;;;17.30;67.00;;;19.86;46.50;97592.94;5024252;28;20054;-40
2022/09/02 07:52:57;;;;;;;5.03;3.50;;;17.30;66.70;;;19.93;46.47;97598.31;5025127;28;20049;-40
2022/09/02 07:55:29;;;;;;;5.18;3.55;;;17.40;66.20;;;19.97;46.38;97598.69;5040277;28;20052;-40
2022/09/02 07:57:58;;;;;;;4.18;3.30;;;17.40;66.30;;;19.98;46.37;97595.75;5022997;28;20050;-40
2022/09/02 08:00:26;;;;;;;4.57;3.13;;;17.50;66.20;;;20.02;46.28;97599.66;5024786;28;20319;-40
2022/09/02 08:03:00;;;;;;;3.65;2.92;;;17.60;66.00;;;20.08;46.18;97597.13;5040497;28;20054;-40
2022/09/02 08:05:35;;;;;;;10.70;4.75;;;17.60;65.40;;;20.12;45.91;97601.84;5023276;28;20058;-40
2022/09/02 08:08:04;;;;;;;3.42;2.53;;;17.60;65.20;;;20.17;45.89;97591.19;5024374;28;20041;-40
2022/09/02 08:10:34;;;;;;;4.75;2.88;;;17.70;65.30;;;20.22;45.96;97591.38;5056323;28;20272;-40
2022/09/02 08:13:05;;;;;;;3.10;2.60;;;17.70;65.10;;;20.29;45.53;97598.56;5025298;28;20244;-40
2022/09/02 08:15:34;;;;;;;3.95;2.70;;;17.80;64.50;;;20.32;45.54;97595.44;5024426;28;20344;-40
2022/09/02 08:18:03;;;;;;;4.28;2.72;;;17.90;64.10;;;20.36;45.25;97600.16;5024300;28;20370;-39
2022/09/02 08:20:32;;;;;;;3.20;2.42;;;17.90;64.10;;;20.42;45.20;97603.84;5023792;28;20218;-39
2022/09/02 08:23:05;;;;;;;3.75;2.55;;;17.90;63.80;;;20.48;45.14;97597.53;5056267;28;20057;-40
2022/09/02 08:25:45;;;;;;;5.97;2.80;;;18.00;63.50;;;20.54;45.03;97603.91;5025068;28;20054;-40
2022/09/02 08:28:13;;;;;;;6.32;2.72;;;18.00;63.40;;;20.57;44.84;97601.56;5024516;28;20057;-40
2022/09/02 08:30:41;;;;;;;6.20;2.60;;;18.10;63.20;;;20.63;44.83;97592.59;5024305;28;20052;-44
2022/09/02 08:33:09;;;;;;;3.30;2.58;;;18.10;63.10;;;20.69;44.94;97595.44;5024267;28;20049;-40
2022/09/02 08:35:37;;;;;;;3.40;2.80;;;18.20;62.50;;;20.72;44.44;97592.28;5023682;28;20048;-40
2022/09/02 08:38:05;;;;;;;3.30;2.75;;;18.30;62.30;;;20.78;44.63;97597.59;5024783;28;20136;-40
2022/09/02 08:40:40;;;;;;;4.25;2.67;;;18.30;62.20;;;20.85;44.51;97603.75;5024077;28;20049;-40
2022/09/02 08:43:39;;;;;;;4.70;2.40;;;18.40;61.30;;;20.93;44.34;97593.66;5024106;28;20056;-40
2022/09/02 08:46:11;;;;;;;2.80;2.15;;;18.50;60.10;;;21.00;43.79;97595.22;5023188;28;20222;-40
2022/09/02 08:49:03;;;;;;;2.97;2.67;;;18.50;60.80;;;21.04;43.73;97587.47;5055130;28;20222;-40
2022/09/02 08:51:56;;;;;;;4.40;2.28;;;18.60;59.20;;;21.09;43.08;97589.47;5053668;28;20054;-40
2022/09/02 08:54:54;;;;;;;4.03;2.45;;;18.60;59.50;;;21.14;42.99;97585.03;5023630;28;20045;-40
2022/09/02 08:57:25;;;;;;;2.90;2.20;;;18.60;58.80;;;21.19;42.67;97576.22;5023669;28;20049;-40
2022/09/02 08:59:59;;;;;;;4.10;2.25;;;18.70;59.00;;;21.22;42.36;97579.28;5023771;28;20072;-40
2022/09/02 09:02:59;;;;;;;3.70;2.15;;;18.80;57.80;;;21.29;42.00;97581.09;5024040;28;20056;-40
2022/09/02 09:06:15;;;;;;;2.17;1.95;;;18.90;56.20;;;21.36;42.28;97573.66;5020740;28;20045;-40
2022/09/02 09:08:49;;;;;;;4.63;2.17;;;18.90;56.60;;;21.42;41.71;97570.88;5023373;28;20050;-40
2022/09/02 09:11:37;;;;;;;3.00;2.30;;;19.00;57.30;;;21.46;41.42;97568.56;5022632;28;20052;-40
2022/09/02 09:14:39;;;;;;;2.72;2.10;;;19.10;56.70;;;21.53;42.05;97563.84;5023486;28;20052;-40
2022/09/02 09:17:43;;;;;;;2.08;1.75;;;19.10;55.10;;;21.63;41.97;97564.13;5026278;28;20066;-40
2022/09/02 09:20:42;;;;;;;4.22;2.38;;;19.20;55.40;;;21.69;41.23;97562.31;5022169;28;20060;-40
2022/09/02 09:23:32;;;;;;;3.58;2.45;;;19.20;53.10;;;21.71;40.68;97552.06;5026680;28;20066;-40
2022/09/02 09:26:15;;;;;;;2.28;1.90;;;19.20;54.50;;;21.78;40.67;97560.91;5023187;28;20056;-40
2022/09/02 09:28:46;;;;;;;4.00;2.33;;;19.40;53.90;;;21.82;40.23;97555.84;5022775;28;20046;-40
2022/09/02 09:31:21;;;;;;;3.22;2.10;;;19.40;54.30;;;21.87;40.13;97556.00;5023178;28;20233;-40
2022/09/02 09:34:05;;;;;;;3.25;1.88;;;19.50;53.30;;;21.92;39.84;97545.25;5023518;28;20049;-40
2022/09/02 09:37:08;;;;;;;2.08;1.77;;;19.50;51.90;;;21.98;39.99;97547.03;5023145;28;20045;-40
2022/09/02 09:39:36;;;;;;;2.23;1.90;;;19.60;51.50;;;22.03;39.15;97541.72;5040504;28;20060;-40
2022/09/02 09:42:13;;;;;;;2.10;1.88;;;19.60;52.90;;;22.09;39.13;97547.25;5026422;28;20062;-41
2022/09/02 09:44:48;;;;;;;3.33;1.90;;;19.70;50.50;;;22.11;38.61;97542.41;5022922;28;20042;-40
2022/09/02 09:47:24;;;;;;;2.55;1.88;;;19.70;51.10;;;22.16;38.90;97547.97;5023599;28;20224;-40
2022/09/02 09:50:15;;;;;;;3.92;1.70;;;19.80;51.00;;;22.22;38.52;97538.88;5022908;28;20045;-40
2022/09/02 09:52:44;;;;;;;2.95;1.80;;;19.80;51.40;;;22.28;38.83;97542.53;5022817;28;20356;-40
2022/09/02 09:55:20;;;;;;;5.22;1.70;;;19.90;51.90;;;22.33;38.26;97529.06;5022419;28;20071;-40
2022/09/02 09:58:05;;;;;;;2.30;1.90;;;19.90;50.40;;;22.38;38.10;97537.31;5022583;28;20052;-40
2022/09/02 10:00:34;;;;;;;4.95;1.65;;;20.00;51.10;;;22.45;37.94;97535.31;5050643;28;20060;-40
2022/09/02 10:03:07;;;;;;;3.55;1.60;;;20.00;50.80;;;22.49;37.41;97530.22;5054028;28;20056;-40
2022/09/02 10:05:39;;;;;;;2.28;1.63;;;20.10;50.00;;;22.54;37.75;97536.56;5053450;28;20244;-40
2022/09/02 10:08:13;;;;;;;3.20;1.63;;;20.20;49.50;;;22.61;37.33;97526.41;5054637;28;20060;-40
2022/09/02 10:11:01;;;;;;;2.67;2.08;;;20.20;49.00;;;22.64;37.14;97516.94;5022590;28;20350;-41
2022/09/02 10:13:36;;;;;;;3.17;1.80;;;20.20;47.10;;;22.68;37.24;97526.28;5022464;28;20359;-40
2022/09/02 10:16:31;;;;;;;2.30;1.83;;;20.30;49.00;;;22.76;37.15;97525.03;5053257;28;20060;-40
2022/09/02 10:19:33;;;;;;;1.95;1.70;;;20.30;47.30;;;22.78;36.87;97517.50;5022139;28;20051;-40
2022/09/02 10:22:18;;;;;;;1.90;1.65;;;20.30;46.70;;;22.85;36.03;97511.91;5051253;28;20060;-40
2022/09/02 10:24:55;;;;;;;1.88;1.60;;;20.40;48.00;;;22.89;36.02;97515.78;5051400;28;20269;-40
2022/09/02 10:28:06;;;;;;;2.10;1.75;;;20.50;46.30;;;22.92;36.24;97512.59;5022103;28;20060;-40
2022/09/02 10:31:12;;;;;;;3.70;1.73;;;20.50;46.20;;;22.99;36.24;97502.38;5022072;28;20060;-40
2022/09/02 10:33:48;;;;;;;1.95;1.73;;;20.60;45.70;;;23.08;35.77;97508.28;5030126;28;20292;-39
2022/09/02 10:36:31;;;;;;;3.00;1.83;;;20.60;46.10;;;23.12;35.49;97507.53;5022161;28;20352;-40
2022/09/02 10:39:24;;;;;;;3.50;2.08;;;20.70;44.30;;;23.16;35.03;97502.44;5023433;28;20054;-40
2022/09/02 10:42:06;;;;;;;2.97;1.52;;;20.70;43.60;;;23.20;35.40;97500.88;5051697;28;20049;-39
2022/09/02 10:45:23;;;;;;;1.80;1.35;;;20.80;45.70;;;23.25;35.59;97490.13;5051613;28;20344;-40
2022/09/02 10:48:25;;;;;;;3.65;1.45;;;20.80;44.30;;;23.33;35.36;97476.13;5022937;28;20050;-39
2022/09/02 10:51:24;;;;;;;6.93;2.55;;;20.90;44.70;;;23.36;35.32;97481.06;5053871;28;20058;-39
2022/09/02 10:54:24;;;;;;;1.80;1.67;;;21.00;43.70;;;23.43;34.79;97475.47;5052401;28;20060;-40